Time;durP1;ratioP1;P1;durP2;ratioP2;P2;SDS_P1;SDS_P2;PMS_P1;PMS_P2;Temp;Humidity;BMP_temperature;BMP_pressure;BME280_temperature;BME280_humidity;BME280_pressure;Samples;Min_cycle;Max_cycle;Signal;HPM_P1;HPM_P2
2022/08/07 00:01:00;;;;;;;17.60;10.57;;;;;;;-147.53;100.00;57128.34;10242027;28;20079;-84
2022/08/07 00:06:22;;;;;;;19.05;10.32;;;;;;;-147.53;100.00;57128.34;10211098;28;20043;-84
2022/08/07 00:11:34;;;;;;;21.55;10.85;;;;;;;-147.53;100.00;57128.34;10225320;28;20051;-84
2022/08/07 00:16:59;;;;;;;17.85;10.48;;;;;;;-147.53;100.00;57128.34;10222379;28;20051;-84
2022/08/07 00:22:02;;;;;;;18.35;10.30;;;;;;;-147.53;100.00;57128.34;10225914;28;20065;-84
2022/08/07 00:27:05;;;;;;;18.80;10.35;;;;;;;-147.53;100.00;57128.34;10233724;28;20620;-83
2022/08/07 00:32:11;;;;;;;21.30;10.23;;;;;;;-147.53;100.00;57128.34;10250693;28;20069;-83
2022/08/07 00:37:17;;;;;;;17.52;10.00;;;;;;;-147.53;100.00;57128.34;10229627;28;20054;-84
2022/08/07 00:42:23;;;;;;;17.13;10.77;;;;;;;-147.53;100.00;57128.34;10223349;28;20051;-84
2022/08/07 00:47:30;;;;;;;15.93;9.23;;;;;;;-147.53;100.00;57128.34;10240091;28;20116;-84
2022/08/07 00:52:51;;;;;;;18.10;9.35;;;;;;;-147.53;100.00;57128.34;10225408;28;20053;-83
2022/08/07 00:57:53;;;;;;;17.65;9.55;;;;;;;-147.53;100.00;57128.34;10230619;28;20051;-83
2022/08/07 01:02:57;;;;;;;16.55;9.38;;;;;;;-147.53;100.00;57128.34;10248474;28;20043;-84
2022/08/07 01:07:59;;;;;;;18.27;10.18;;;;;;;-147.53;100.00;57128.34;10229797;28;20070;-83
2022/08/07 01:13:00;;;;;;;17.63;9.30;;;;;;;-147.53;100.00;57128.34;10251695;28;20078;-83
2022/08/07 01:18:04;;;;;;;19.02;9.48;;;;;;;-147.53;100.00;57128.34;10231867;28;20098;-84
2022/08/07 01:23:13;;;;;;;17.10;9.27;;;;;;;-147.53;100.00;57128.34;10228285;28;20126;-84
2022/08/07 01:28:16;;;;;;;20.20;9.25;;;;;;;-147.53;100.00;57128.34;10218069;28;20039;-83
2022/08/07 01:33:23;;;;;;;19.30;10.25;;;;;;;-147.53;100.00;57128.34;10238849;28;20075;-84
2022/08/07 01:38:33;;;;;;;16.88;9.15;;;;;;;-147.53;100.00;57128.34;10233934;28;20428;-83
2022/08/07 01:43:46;;;;;;;18.55;10.60;;;;;;;-147.53;100.00;57128.34;10233532;28;20047;-84
2022/08/07 01:48:49;;;;;;;18.05;10.32;;;;;;;-147.53;100.00;57128.34;10233428;28;20541;-83
2022/08/07 01:53:57;;;;;;;19.38;11.23;;;;;;;-147.53;100.00;57128.34;10212182;29;20048;-84
2022/08/07 01:59:17;;;;;;;17.58;10.40;;;;;;;-147.53;100.00;57128.34;10210216;29;20071;-83
2022/08/07 02:04:31;;;;;;;20.02;9.48;;;;;;;-147.53;100.00;57128.34;10219070;28;20134;-84
2022/08/07 02:09:40;;;;;;;17.63;9.88;;;;;;;-147.53;100.00;57128.34;10211662;29;20717;-83
2022/08/07 02:14:57;;;;;;;18.05;10.45;;;;;;;-147.53;100.00;57128.34;10233352;28;20047;-84
2022/08/07 02:20:12;;;;;;;16.88;9.43;;;;;;;-147.53;100.00;57128.34;10251457;28;20117;-83
2022/08/07 02:25:23;;;;;;;17.23;9.70;;;;;;;-147.53;100.00;57128.34;10233550;28;20467;-84
2022/08/07 02:30:49;;;;;;;17.10;9.70;;;;;;;-147.53;100.00;57128.34;10232615;28;20123;-83
2022/08/07 02:35:52;;;;;;;15.57;8.80;;;;;;;-147.53;100.00;57128.34;10233267;28;20043;-83
2022/08/07 02:41:14;;;;;;;16.15;9.80;;;;;;;-147.53;100.00;57128.34;10247475;28;20053;-84
2022/08/07 02:46:25;;;;;;;19.83;9.50;;;;;;;-147.53;100.00;57128.34;10233696;28;20043;-84
2022/08/07 02:51:35;;;;;;;16.77;9.55;;;;;;;-147.53;100.00;57128.34;10234107;28;20586;-83
2022/08/07 02:56:56;;;;;;;16.50;9.77;;;;;;;-147.53;100.00;57128.34;10231448;28;20081;-84
2022/08/07 03:02:00;;;;;;;19.05;9.70;;;;;;;-147.53;100.00;57128.34;10237065;28;20058;-83
2022/08/07 03:07:04;;;;;;;17.73;9.68;;;;;;;-147.53;100.00;57128.34;10248568;28;20055;-83
2022/08/07 03:12:15;;;;;;;17.58;9.60;;;;;;;-147.53;100.00;57128.34;10232304;28;20553;-84
2022/08/07 03:17:36;;;;;;;18.08;9.80;;;;;;;-147.53;100.00;57128.34;10231096;28;20082;-82
2022/08/07 03:22:58;;;;;;;16.90;9.43;;;;;;;-147.53;100.00;57128.34;10239485;28;20039;-84
2022/08/07 03:28:03;;;;;;;24.42;9.73;;;;;;;-147.53;100.00;57128.34;10217786;28;20072;-83
2022/08/07 03:33:26;;;;;;;18.38;9.57;;;;;;;-147.53;100.00;57128.34;10229899;28;20040;-83
2022/08/07 03:38:43;;;;;;;16.90;9.07;;;;;;;-147.53;100.00;57128.34;10229859;28;20051;-84
2022/08/07 03:43:48;;;;;;;16.75;9.63;;;;;;;-147.53;100.00;57128.34;10193250;29;20044;-83
2022/08/07 03:49:01;;;;;;;14.80;8.77;;;;;;;-147.53;100.00;57128.34;10220758;28;20114;-82
2022/08/07 03:54:10;;;;;;;17.45;9.25;;;;;;;-147.53;100.00;57128.34;10210552;28;20043;-83
2022/08/07 03:59:32;;;;;;;15.27;8.63;;;;;;;-147.53;100.00;57128.34;10235488;28;20090;-84
2022/08/07 04:04:34;;;;;;;19.88;9.02;;;;;;;-147.53;100.00;57128.34;10258178;28;20043;-83
2022/08/07 04:09:40;;;;;;;18.23;9.25;;;;;;;-147.53;100.00;57128.34;10236160;28;20550;-83
2022/08/07 04:14:57;;;;;;;21.38;11.40;;;;;;;-147.53;100.00;57128.34;10237584;28;20436;-83
2022/08/07 04:20:03;;;;;;;16.95;8.15;;;;;;;-147.53;100.00;57128.34;10232067;28;20057;-83
2022/08/07 04:25:10;;;;;;;18.42;9.38;;;;;;;-147.53;100.00;57128.34;10236034;28;20549;-83
2022/08/07 04:30:17;;;;;;;22.20;10.52;;;;;;;-147.53;100.00;57128.34;10245243;28;20055;-84
2022/08/07 04:35:48;;;;;;;18.40;9.50;;;;;;;-147.53;100.00;57128.34;10239002;28;20043;-84
2022/08/07 04:40:56;;;;;;;17.60;9.07;;;;;;;-147.53;100.00;57128.34;10237921;28;20067;-84
2022/08/07 04:46:17;;;;;;;20.35;10.68;;;;;;;-147.53;100.00;57128.34;10230341;28;20563;-83
2022/08/07 04:51:41;;;;;;;16.73;9.52;;;;;;;-147.53;100.00;57128.34;10231925;28;20142;-83
2022/08/07 04:56:51;;;;;;;18.52;10.10;;;;;;;-147.53;100.00;57128.34;10246753;28;20130;-84
2022/08/07 05:02:24;;;;;;;21.50;10.60;;;;;;;-147.53;100.00;57128.34;10226093;28;20134;-84
2022/08/07 05:07:37;;;;;;;18.52;9.57;;;;;;;-147.53;100.00;57128.34;10243262;28;20103;-83
2022/08/07 05:12:56;;;;;;;15.73;9.57;;;;;;;-147.53;100.00;57128.34;10236073;28;20539;-83
2022/08/07 05:18:26;;;;;;;16.02;9.23;;;;;;;-147.53;100.00;57128.34;10235852;28;20047;-83
2022/08/07 05:23:38;;;;;;;20.95;9.82;;;;;;;-147.53;100.00;57128.34;10234701;28;20059;-84
2022/08/07 05:28:44;;;;;;;17.88;10.30;;;;;;;-147.53;100.00;57128.34;10237526;28;20047;-83
2022/08/07 05:33:54;;;;;;;20.50;10.48;;;;;;;-147.53;100.00;57128.34;10229678;28;20039;-83
2022/08/07 05:39:10;;;;;;;22.73;10.05;;;;;;;-147.53;100.00;57128.34;10234792;28;20130;-84
2022/08/07 05:44:36;;;;;;;20.42;10.98;;;;;;;-147.53;100.00;57128.34;10232490;28;20170;-84
2022/08/07 05:49:49;;;;;;;20.77;11.63;;;;;;;-147.53;100.00;57128.34;10239068;28;20448;-84
2022/08/07 05:54:53;;;;;;;23.60;12.30;;;;;;;-147.53;100.00;57128.34;10236455;28;20051;-83
2022/08/07 06:00:07;;;;;;;23.90;12.35;;;;;;;-147.53;100.00;57128.34;10234880;28;20054;-84
2022/08/07 06:05:30;;;;;;;24.63;11.57;;;;;;;-147.53;100.00;57128.34;10266478;28;20199;-83
2022/08/07 06:10:37;;;;;;;23.42;12.40;;;;;;;-147.53;100.00;57128.34;10250241;28;20039;-83
2022/08/07 06:15:44;;;;;;;26.52;12.80;;;;;;;-147.53;100.00;57128.34;10248503;28;20653;-82
2022/08/07 06:20:54;;;;;;;22.10;13.45;;;;;;;-147.53;100.00;57128.34;10258866;28;20039;-83
2022/08/07 06:26:16;;;;;;;27.90;13.65;;;;;;;-147.53;100.00;57128.34;10257115;28;20066;-83
2022/08/07 06:31:19;;;;;;;22.55;12.75;;;;;;;-147.53;100.00;57128.34;10242385;28;20043;-83
2022/08/07 06:36:25;;;;;;;23.20;12.50;;;;;;;-147.53;100.00;57128.34;10235833;28;20066;-83
2022/08/07 06:42:03;;;;;;;24.95;12.00;;;;;;;-147.53;100.00;57128.34;10206237;28;20051;-81
2022/08/07 06:47:25;;;;;;;27.23;11.65;;;;;;;-147.53;100.00;57128.34;10215023;28;20055;-79
2022/08/07 06:52:33;;;;;;;20.38;11.32;;;;;;;-147.53;100.00;57128.34;10236774;28;20039;-79
2022/08/07 06:57:39;;;;;;;19.85;11.25;;;;;;;-147.53;100.00;57128.34;10219834;28;20065;-78
2022/08/07 07:02:55;;;;;;;19.00;10.45;;;;;;;-147.53;100.00;57128.34;10223666;28;20063;-79
2022/08/07 07:08:01;;;;;;;19.75;10.27;;;;;;;-147.53;100.00;57128.34;10218463;28;20075;-79
2022/08/07 07:13:16;;;;;;;15.00;8.73;;;;;;;-147.53;100.00;57128.34;10218129;28;20055;-78
2022/08/07 07:18:53;;;;;;;14.73;8.00;;;;;;;-147.53;100.00;57128.34;10239732;28;20499;-77
2022/08/07 07:23:55;;;;;;;14.15;6.55;;;;;;;-147.53;100.00;57128.34;10234978;28;20039;-77
2022/08/07 07:29:16;;;;;;;14.50;7.47;;;;;;;-147.53;100.00;57128.34;10216199;28;20047;-78
2022/08/07 07:34:42;;;;;;;11.73;6.90;;;;;;;-147.53;100.00;57128.34;10238218;28;20047;-79
2022/08/07 07:39:47;;;;;;;12.68;7.68;;;;;;;-147.53;100.00;57128.34;10228946;28;20096;-78
2022/08/07 07:44:58;;;;;;;12.75;6.43;;;;;;;-147.53;100.00;57128.34;10245513;28;20047;-78
2022/08/07 07:50:00;;;;;;;11.63;6.70;;;;;;;-147.53;100.00;57128.34;10242022;28;20507;-79
2022/08/07 07:55:24;;;;;;;11.70;5.82;;;;;;;-147.53;100.00;57128.34;10253283;28;20050;-78
2022/08/07 08:00:38;;;;;;;12.57;6.65;;;;;;;-147.53;100.00;57128.34;10242649;28;20047;-77
2022/08/07 08:05:43;;;;;;;11.20;6.40;;;;;;;-147.53;100.00;57128.34;10228447;28;20047;-77
2022/08/07 08:10:56;;;;;;;11.77;5.72;;;;;;;-147.53;100.00;57128.34;10241506;28;20430;-78
2022/08/07 08:16:01;;;;;;;12.05;5.82;;;;;;;-147.53;100.00;57128.34;10227954;28;20422;-78
2022/08/07 08:21:04;;;;;;;10.05;4.82;;;;;;;-147.53;100.00;57128.34;10226343;28;20051;-80
2022/08/07 08:31:35;;;;;;;8.43;4.72;;;;;;;-147.53;100.00;57128.34;10248073;28;20107;-81
2022/08/07 08:37:08;;;;;;;9.85;4.95;;;;;;;-147.53;100.00;57128.34;10246488;28;20134;-79
2022/08/07 08:42:44;;;;;;;9.32;4.80;;;;;;;-147.53;100.00;57128.34;10241984;28;20114;-81
2022/08/07 08:48:19;;;;;;;8.43;4.90;;;;;;;-147.53;100.00;57128.34;10225336;28;20070;-79
2022/08/07 08:53:57;;;;;;;11.05;4.78;;;;;;;-147.53;100.00;57128.34;10200410;29;20050;-80
2022/08/07 08:59:34;;;;;;;8.85;5.15;;;;;;;-147.53;100.00;57128.34;10201680;29;20110;-79
2022/08/07 09:04:56;;;;;;;8.23;4.63;;;;;;;-147.53;100.00;57128.34;10202406;29;20040;-80
2022/08/07 09:10:24;;;;;;;8.13;4.72;;;;;;;-147.53;100.00;57128.34;10204705;29;20067;-81
2022/08/07 09:15:34;;;;;;;6.97;4.07;;;;;;;-147.53;100.00;57128.34;10201292;29;20508;-82
2022/08/07 09:21:32;;;;;;;9.07;3.90;;;;;;;-147.53;100.00;57128.34;10201806;29;20063;-80
2022/08/07 09:26:59;;;;;;;9.02;4.00;;;;;;;-147.53;100.00;57128.34;10187541;28;20050;-80
2022/08/07 09:32:30;;;;;;;9.20;4.65;;;;;;;-147.53;100.00;57128.34;10230309;28;20062;-77
2022/08/07 09:38:06;;;;;;;10.20;4.88;;;;;;;-147.53;100.00;57128.34;10225258;28;20082;-82
2022/08/07 09:43:18;;;;;;;8.32;4.50;;;;;;;-147.53;100.00;57128.34;10204559;29;20047;-82
2022/08/07 09:49:21;;;;;;;8.50;4.05;;;;;;;-147.53;100.00;57128.34;10202584;29;20035;-84
2022/08/07 09:54:46;;;;;;;6.88;3.83;;;;;;;-147.53;100.00;57128.34;10248708;28;20070;-83
2022/08/07 10:00:12;;;;;;;7.28;3.80;;;;;;;-147.53;100.00;57128.34;10232781;28;20049;-84
2022/08/07 10:05:31;;;;;;;8.85;4.40;;;;;;;-147.53;100.00;57128.34;10223922;28;20053;-84
2022/08/07 10:11:22;;;;;;;7.72;4.28;;;;;;;-147.53;100.00;57128.34;10243461;28;20138;-80
2022/08/07 10:16:52;;;;;;;7.32;3.80;;;;;;;-147.53;100.00;57128.34;10247997;28;20114;-83
2022/08/07 10:22:27;;;;;;;8.13;4.18;;;;;;;-147.53;100.00;57128.34;10245388;28;20562;-82
2022/08/07 10:27:52;;;;;;;7.80;3.72;;;;;;;-147.53;100.00;57128.34;10240757;28;20115;-82
2022/08/07 10:33:19;;;;;;;10.55;4.25;;;;;;;-147.53;100.00;57128.34;10252965;28;20054;-83
2022/08/07 10:39:25;;;;;;;8.30;4.35;;;;;;;-147.53;100.00;57128.34;10236811;28;20054;-81
2022/08/07 10:44:54;;;;;;;7.97;3.75;;;;;;;-147.53;100.00;57128.34;10083993;29;20505;-84
2022/08/07 10:50:07;;;;;;;7.55;3.55;;;;;;;-147.53;100.00;57128.34;10225119;28;20470;-83
2022/08/07 10:55:16;;;;;;;7.88;3.30;;;;;;;-147.53;100.00;57128.34;10222733;28;20050;-82
2022/08/07 11:01:06;;;;;;;9.43;4.28;;;;;;;-147.53;100.00;57128.34;10242878;28;20047;-82
2022/08/07 11:06:23;;;;;;;7.97;4.03;;;;;;;-147.53;100.00;57128.34;10237637;28;20459;-81
2022/08/07 11:11:53;;;;;;;8.27;3.80;;;;;;;-147.53;100.00;57128.34;10236761;28;20532;-83
2022/08/07 11:17:24;;;;;;;7.03;3.92;;;;;;;-147.53;100.00;57128.34;10241107;28;20043;-84
2022/08/07 11:23:24;;;;;;;8.63;4.18;;;;;;;-147.53;100.00;57128.34;10227884;28;20733;-82
2022/08/07 11:28:50;;;;;;;6.90;3.47;;;;;;;-147.53;100.00;57128.34;10241843;28;20074;-82
2022/08/07 11:34:20;;;;;;;9.00;4.22;;;;;;;-147.53;100.00;57128.34;10246638;28;20047;-80
2022/08/07 11:39:54;;;;;;;8.48;3.30;;;;;;;-147.53;100.00;57128.34;10240209;28;20074;-82
2022/08/07 11:45:33;;;;;;;8.82;3.72;;;;;;;-147.53;100.00;57128.34;10242951;28;20046;-83
2022/08/07 11:50:45;;;;;;;8.35;3.70;;;;;;;-147.53;100.00;57128.34;10229260;28;20095;-85
2022/08/07 11:56:32;;;;;;;6.57;3.30;;;;;;;-147.53;100.00;57128.34;10213307;28;20570;-82
2022/08/07 12:02:10;;;;;;;7.45;3.40;;;;;;;-147.53;100.00;57128.34;10237059;28;20093;-82
2022/08/07 12:07:35;;;;;;;6.03;3.25;;;;;;;-147.53;100.00;57128.34;10242678;28;20134;-82
2022/08/07 12:12:46;;;;;;;7.97;3.28;;;;;;;-147.53;100.00;57128.34;10241172;28;20051;-84
2022/08/07 12:17:59;;;;;;;8.38;3.50;;;;;;;-147.53;100.00;57128.34;10242868;28;20078;-86
2022/08/07 12:23:43;;;;;;;7.95;3.05;;;;;;;-147.53;100.00;57128.34;10249349;28;20472;-83
2022/08/07 12:29:11;;;;;;;7.18;3.20;;;;;;;-147.53;100.00;57128.34;10249333;28;20062;-85
2022/08/07 12:34:16;;;;;;;6.97;3.22;;;;;;;-147.53;100.00;57128.34;10221579;28;20055;-85
2022/08/07 12:39:23;;;;;;;5.78;3.15;;;;;;;-147.53;100.00;57128.34;10251833;28;20472;-81
2022/08/07 12:44:47;;;;;;;5.93;3.30;;;;;;;-147.53;100.00;57128.34;10232256;28;20048;-84
2022/08/07 12:50:09;;;;;;;8.45;3.30;;;;;;;-147.53;100.00;57128.34;10246354;28;20468;-84
2022/08/07 12:55:42;;;;;;;6.40;3.30;;;;;;;-147.53;100.00;57128.34;10253014;28;20462;-84
2022/08/07 13:01:29;;;;;;;7.65;3.08;;;;;;;-147.53;100.00;57128.34;10250063;28;20050;-85
2022/08/07 13:06:57;;;;;;;7.63;3.13;;;;;;;-147.53;100.00;57128.34;10220382;28;20097;-85
2022/08/07 13:12:27;;;;;;;6.00;2.95;;;;;;;-147.53;100.00;57128.34;10244595;28;20047;-85
2022/08/07 13:18:12;;;;;;;6.63;2.97;;;;;;;-147.53;100.00;57128.34;10249764;28;20050;-80
2022/08/07 13:23:41;;;;;;;7.05;3.00;;;;;;;-147.53;100.00;57128.34;10227321;28;20058;-84
2022/08/07 13:29:07;;;;;;;8.93;3.00;;;;;;;-147.53;100.00;57128.34;10240808;28;20517;-84
2022/08/07 13:34:15;;;;;;;6.93;2.75;;;;;;;-147.53;100.00;57128.34;10240558;28;20054;-83
2022/08/07 13:39:49;;;;;;;5.38;2.60;;;;;;;-147.53;100.00;57128.34;10240929;28;20605;-84
2022/08/07 13:45:12;;;;;;;5.13;2.67;;;;;;;-147.53;100.00;57128.34;10226594;28;20134;-83
2022/08/07 13:50:39;;;;;;;6.18;3.03;;;;;;;-147.53;100.00;57128.34;10244515;28;20130;-81
2022/08/07 13:56:02;;;;;;;6.03;2.85;;;;;;;-147.53;100.00;57128.34;10246565;28;20142;-78
2022/08/07 14:01:12;;;;;;;8.85;3.25;;;;;;;-147.53;100.00;57128.34;10247658;28;20043;-83
2022/08/07 14:06:15;;;;;;;6.20;2.47;;;;;;;-147.53;100.00;57128.34;10241591;28;20496;-82
2022/08/07 14:11:22;;;;;;;6.32;2.72;;;;;;;-147.53;100.00;57128.34;10244277;28;20051;-83
2022/08/07 14:16:30;;;;;;;6.30;2.60;;;;;;;-147.53;100.00;57128.34;10242459;28;20483;-83
2022/08/07 14:21:39;;;;;;;5.40;2.40;;;;;;;-147.53;100.00;57128.34;10241924;28;20043;-83
2022/08/07 14:27:05;;;;;;;3.60;2.22;;;;;;;-147.53;100.00;57128.34;10234052;28;20813;-84
2022/08/07 14:32:28;;;;;;;5.28;2.40;;;;;;;-147.53;100.00;57128.34;10236732;28;20078;-84
2022/08/07 14:37:31;;;;;;;6.45;2.53;;;;;;;-147.53;100.00;57128.34;10236690;28;20743;-84
2022/08/07 14:42:40;;;;;;;5.93;2.92;;;;;;;-147.53;100.00;57128.34;10237308;28;20555;-85
2022/08/07 14:48:05;;;;;;;6.97;3.10;;;;;;;-147.53;100.00;57128.34;10236768;28;20103;-84
2022/08/07 14:53:09;;;;;;;8.27;2.80;;;;;;;-147.53;100.00;57128.34;10238308;28;20530;-85
2022/08/07 14:58:16;;;;;;;7.53;2.80;;;;;;;-147.53;100.00;57128.34;10224753;28;20442;-85
2022/08/07 15:03:39;;;;;;;4.78;2.60;;;;;;;-147.53;100.00;57128.34;10235361;28;20402;-85
2022/08/07 15:08:54;;;;;;;4.22;2.42;;;;;;;-147.53;100.00;57128.34;10236880;28;20051;-86
2022/08/07 15:13:59;;;;;;;8.38;2.50;;;;;;;-147.53;100.00;57128.34;10235578;28;20054;-85
2022/08/07 15:19:16;;;;;;;4.43;2.33;;;;;;;-147.53;100.00;57128.34;10238964;28;20051;-85
2022/08/07 15:24:22;;;;;;;6.65;3.63;;;;;;;-147.53;100.00;57128.34;10241351;28;20507;-85
2022/08/07 15:29:49;;;;;;;5.40;3.22;;;;;;;-147.53;100.00;57128.34;10223215;28;20043;-85
2022/08/07 15:35:20;;;;;;;4.80;2.60;;;;;;;-147.53;100.00;57128.34;10222477;28;20067;-82
2022/08/07 15:40:46;;;;;;;3.58;2.03;;;;;;;-147.53;100.00;57128.34;10238377;28;20047;-82
2022/08/07 15:46:16;;;;;;;5.20;2.50;;;;;;;-147.53;100.00;57128.34;10238051;28;20182;-82
2022/08/07 15:51:44;;;;;;;4.80;2.40;;;;;;;-147.53;100.00;57128.34;10218398;28;20047;-82
2022/08/07 15:56:59;;;;;;;11.55;5.70;;;;;;;-147.53;100.00;57128.34;10218636;28;20051;-81
2022/08/07 16:02:03;;;;;;;6.38;2.40;;;;;;;-147.53;100.00;57128.34;10245011;28;20055;-83
2022/08/07 16:07:11;;;;;;;5.55;2.20;;;;;;;-147.53;100.00;57128.34;10248151;28;20098;-83
2022/08/07 16:12:58;;;;;;;5.28;2.95;;;;;;;-147.53;100.00;57128.34;10229757;28;20125;-83
2022/08/07 16:18:26;;;;;;;4.18;2.20;;;;;;;-147.53;100.00;57128.34;10224132;28;20135;-82
2022/08/07 16:23:54;;;;;;;4.32;2.25;;;;;;;-147.53;100.00;57128.34;10251560;28;20380;-83
2022/08/07 16:29:20;;;;;;;4.00;2.17;;;;;;;-147.53;100.00;57128.34;10248317;28;20098;-84
2022/08/07 16:34:53;;;;;;;3.78;1.55;;;;;;;-147.53;100.00;57128.34;10245226;28;20043;-85
2022/08/07 16:40:17;;;;;;;4.97;1.83;;;;;;;-147.53;100.00;57128.34;10234178;28;20106;-86
2022/08/07 16:46:02;;;;;;;3.38;1.60;;;;;;;-147.53;100.00;57128.34;10239956;28;20039;-85
2022/08/07 16:51:35;;;;;;;3.88;1.52;;;;;;;-147.53;100.00;57128.34;10228763;28;20077;-85
2022/08/07 16:57:27;;;;;;;3.65;1.67;;;;;;;-147.53;100.00;57128.34;10233598;28;20130;-79
2022/08/07 17:03:24;;;;;;;3.35;1.70;;;;;;;-147.53;100.00;57128.34;10248582;28;20050;-79
2022/08/07 17:09:13;;;;;;;2.00;1.40;;;;;;;-147.53;100.00;57128.34;10235639;28;20814;-78
2022/08/07 17:14:50;;;;;;;3.90;1.77;;;;;;;-147.53;100.00;57128.34;10254109;28;20043;-79
2022/08/07 17:19:59;;;;;;;4.38;1.70;;;;;;;-147.53;100.00;57128.34;10210384;28;20059;-80
2022/08/07 17:25:11;;;;;;;4.25;1.60;;;;;;;-147.53;100.00;57128.34;10237431;28;20044;-80
2022/08/07 17:30:17;;;;;;;3.47;1.80;;;;;;;-147.53;100.00;57128.34;10223041;28;20057;-79
2022/08/07 17:35:44;;;;;;;4.00;1.85;;;;;;;-147.53;100.00;57128.34;10256344;28;20075;-79
2022/08/07 17:41:08;;;;;;;3.92;1.92;;;;;;;-147.53;100.00;57128.34;10240417;28;20182;-79
2022/08/07 17:46:55;;;;;;;5.18;1.80;;;;;;;-147.53;100.00;57128.34;10236872;28;20071;-79
2022/08/07 17:52:18;;;;;;;4.55;1.98;;;;;;;-147.53;100.00;57128.34;10210845;28;20634;-80
2022/08/07 17:57:37;;;;;;;6.00;2.03;;;;;;;-147.53;100.00;57128.34;10231011;28;20130;-80
2022/08/07 18:03:26;;;;;;;4.55;2.00;;;;;;;-147.53;100.00;57128.34;10228390;28;20532;-80
2022/08/07 18:08:40;;;;;;;3.97;2.00;;;;;;;-147.53;100.00;57128.34;10247688;28;20039;-80
2022/08/07 18:14:27;;;;;;;6.38;2.30;;;;;;;-147.53;100.00;57128.34;10230576;28;20039;-80
2022/08/07 18:20:01;;;;;;;4.78;2.38;;;;;;;-147.53;100.00;57128.34;10218861;28;20043;-79
2022/08/07 18:25:27;;;;;;;10.80;3.10;;;;;;;-147.53;100.00;57128.34;10239834;28;20051;-80
2022/08/07 18:30:58;;;;;;;7.10;2.83;;;;;;;-147.53;100.00;57128.34;10239322;28;20090;-80
2022/08/07 18:36:30;;;;;;;5.27;2.70;;;;;;;-147.53;100.00;57128.34;10232292;28;20090;-80
2022/08/07 18:42:07;;;;;;;6.97;2.53;;;;;;;-147.53;100.00;57128.34;10224901;28;20038;-80
2022/08/07 18:47:24;;;;;;;5.67;2.47;;;;;;;-147.53;100.00;57128.34;10253826;28;20051;-79
2022/08/07 18:53:07;;;;;;;5.82;2.88;;;;;;;-147.53;100.00;57128.34;10226293;28;20095;-80
2022/08/07 18:58:28;;;;;;;6.35;2.63;;;;;;;-147.53;100.00;57128.34;10246412;28;20082;-80
2022/08/07 19:03:55;;;;;;;7.03;2.83;;;;;;;-147.53;100.00;57128.34;10247586;28;20134;-80
2022/08/07 19:09:21;;;;;;;8.18;3.28;;;;;;;-147.53;100.00;57128.34;10202682;29;20423;-80
2022/08/07 19:14:54;;;;;;;7.93;2.85;;;;;;;-147.53;100.00;57128.34;10235405;28;20043;-79
2022/08/07 19:20:13;;;;;;;7.68;2.70;;;;;;;-147.53;100.00;57128.34;10234762;28;20584;-80
2022/08/07 19:25:35;;;;;;;5.65;2.80;;;;;;;-147.53;100.00;57128.34;10224208;28;20051;-80
2022/08/07 19:31:12;;;;;;;7.88;2.72;;;;;;;-147.53;100.00;57128.34;10235226;28;20043;-81
2022/08/07 19:36:39;;;;;;;4.47;2.38;;;;;;;-147.53;100.00;57128.34;10227913;28;20478;-80
2022/08/07 19:41:44;;;;;;;8.32;3.00;;;;;;;-147.53;100.00;57128.34;10229938;28;20047;-80
2022/08/07 19:47:10;;;;;;;5.95;2.65;;;;;;;-147.53;100.00;57128.34;10233293;28;20045;-80
2022/08/07 19:52:19;;;;;;;6.35;2.72;;;;;;;-147.53;100.00;57128.34;10238345;28;20099;-80
2022/08/07 19:57:33;;;;;;;11.10;2.80;;;;;;;-147.53;100.00;57128.34;10236595;28;20133;-80
2022/08/07 20:03:02;;;;;;;9.38;2.70;;;;;;;-147.53;100.00;57128.34;10238449;28;20051;-80
2022/08/07 20:08:10;;;;;;;6.90;2.60;;;;;;;-147.53;100.00;57128.34;10235838;28;20055;-80
2022/08/07 20:13:16;;;;;;;5.53;2.60;;;;;;;-147.53;100.00;57128.34;10237760;28;21410;-79
2022/08/07 20:18:29;;;;;;;8.68;3.05;;;;;;;-147.53;100.00;57128.34;10238031;28;20190;-80
2022/08/07 20:23:40;;;;;;;8.05;2.80;;;;;;;-147.53;100.00;57128.34;10222225;28;20043;-81
2022/08/07 20:28:56;;;;;;;11.10;3.33;;;;;;;-147.53;100.00;57128.34;10245129;28;20051;-81
2022/08/07 20:34:00;;;;;;;7.70;3.35;;;;;;;-147.53;100.00;57128.34;10238382;28;20090;-80
2022/08/07 20:39:03;;;;;;;12.73;2.92;;;;;;;-147.53;100.00;57128.34;10222615;28;20051;-80
2022/08/07 20:44:34;;;;;;;7.30;2.60;;;;;;;-147.53;100.00;57128.34;10249851;28;20043;-80
2022/08/07 20:49:45;;;;;;;7.45;3.13;;;;;;;-147.53;100.00;57128.34;10221301;28;20063;-81
2022/08/07 20:55:04;;;;;;;5.90;2.88;;;;;;;-147.53;100.00;57128.34;10216836;28;20057;-80
2022/08/07 21:00:07;;;;;;;5.47;2.38;;;;;;;-147.53;100.00;57128.34;10264489;28;20110;-80
2022/08/07 21:05:21;;;;;;;10.45;3.05;;;;;;;-147.53;100.00;57128.34;10229554;28;20062;-80
2022/08/07 21:10:43;;;;;;;7.88;2.97;;;;;;;-147.53;100.00;57128.34;10230858;28;20043;-80
2022/08/07 21:15:51;;;;;;;7.95;2.92;;;;;;;-147.53;100.00;57128.34;10229712;28;20032;-80
2022/08/07 21:21:03;;;;;;;9.88;2.83;;;;;;;-147.53;100.00;57128.34;10229393;28;20122;-79
2022/08/07 21:26:22;;;;;;;7.70;2.97;;;;;;;-147.53;100.00;57128.34;10229047;28;20206;-82
2022/08/07 21:31:51;;;;;;;6.55;3.20;;;;;;;-147.53;100.00;57128.34;10247758;28;20126;-80
2022/08/07 21:37:26;;;;;;;5.20;2.67;;;;;;;-147.53;100.00;57128.34;10228791;28;20458;-80
2022/08/07 21:42:55;;;;;;;6.57;2.55;;;;;;;-147.53;100.00;57128.34;10246307;28;20043;-80
2022/08/07 21:48:10;;;;;;;6.47;2.40;;;;;;;-147.53;100.00;57128.34;10246667;28;20070;-80
2022/08/07 21:53:34;;;;;;;7.22;3.05;;;;;;;-147.53;100.00;57128.34;10222544;28;20050;-80
2022/08/07 21:58:59;;;;;;;6.93;2.65;;;;;;;-147.53;100.00;57128.34;10247529;28;20058;-80
2022/08/07 22:04:11;;;;;;;9.03;3.10;;;;;;;-147.53;100.00;57128.34;10223505;28;20059;-81
2022/08/07 22:09:24;;;;;;;10.18;2.65;;;;;;;-147.53;100.00;57128.34;10249234;28;20582;-81
2022/08/07 22:14:36;;;;;;;5.15;2.50;;;;;;;-147.53;100.00;57128.34;10247737;28;20034;-80
2022/08/07 22:20:17;;;;;;;7.20;3.15;;;;;;;-147.53;100.00;57128.34;10228912;28;20039;-81
2022/08/07 22:25:40;;;;;;;7.32;2.60;;;;;;;-147.53;100.00;57128.34;10164705;28;20043;-80
2022/08/07 22:31:15;;;;;;;5.32;2.50;;;;;;;-147.53;100.00;57128.34;10229503;28;20503;-80
2022/08/07 22:37:05;;;;;;;6.32;2.97;;;;;;;-147.53;100.00;57128.34;10211843;28;20047;-81
2022/08/07 22:42:16;;;;;;;5.15;2.83;;;;;;;-147.53;100.00;57128.34;10245856;28;20057;-80
2022/08/07 22:47:33;;;;;;;6.20;2.95;;;;;;;-147.53;100.00;57128.34;10238997;28;20141;-80
2022/08/07 22:52:49;;;;;;;7.35;2.90;;;;;;;-147.53;100.00;57128.34;10231129;28;20057;-81
2022/08/07 22:58:09;;;;;;;6.72;2.75;;;;;;;-147.53;100.00;57128.34;10230608;28;20047;-80
2022/08/07 23:03:41;;;;;;;7.57;3.55;;;;;;;-147.53;100.00;57128.34;10242398;28;20047;-81
2022/08/07 23:09:41;;;;;;;6.70;3.20;;;;;;;-147.53;100.00;57128.34;10248921;28;20399;-81
2022/08/07 23:15:16;;;;;;;7.03;2.67;;;;;;;-147.53;100.00;57128.34;10243576;28;20039;-81
2022/08/07 23:20:55;;;;;;;8.35;3.20;;;;;;;-147.53;100.00;57128.34;10229697;28;20078;-80
2022/08/07 23:26:16;;;;;;;8.68;3.15;;;;;;;-147.53;100.00;57128.34;10227023;28;20052;-80
2022/08/07 23:31:43;;;;;;;8.77;3.10;;;;;;;-147.53;100.00;57128.34;10246946;28;20051;-80
2022/08/07 23:37:34;;;;;;;6.47;2.83;;;;;;;-147.53;100.00;57128.34;10236781;28;20114;-82
2022/08/07 23:43:16;;;;;;;6.70;2.95;;;;;;;-147.53;100.00;57128.34;10221918;28;20055;-80
2022/08/07 23:48:55;;;;;;;6.82;3.03;;;;;;;-147.53;100.00;57128.34;10242495;28;20138;-81
2022/08/07 23:54:24;;;;;;;6.93;3.40;;;;;;;-147.53;100.00;57128.34;10249154;28;20066;-81
